Time;durP1;ratioP1;P1;durP2;ratioP2;P2;SDS_P1;SDS_P2;PMS_P1;PMS_P2;Temp;Humidity;BMP_temperature;BMP_pressure;BME280_temperature;BME280_humidity;BME280_pressure;Samples;Min_cycle;Max_cycle;Signal;HPM_P1;HPM_P2
2023/08/08 00:05:26;;;;;;;6.17;2.27;;;;;;;19.24;62.03;100087.59;1701473;78;21390;-56
2023/08/08 00:11:01;;;;;;;3.42;2.60;;;;;;;19.19;62.18;100082.44;1648704;84;21390;-57
2023/08/08 00:16:35;;;;;;;2.90;2.35;;;;;;;19.12;62.38;100093.64;1705840;81;21241;-57
2023/08/08 00:22:12;;;;;;;5.17;2.60;;;;;;;19.09;62.59;100094.13;1709806;80;21346;-57
2023/08/08 00:27:49;;;;;;;5.95;2.80;;;;;;;19.04;62.59;100099.53;1687708;80;21631;-56
2023/08/08 00:30:47;;;;;;;3.60;2.37;;;;;;;19.00;62.62;100103.88;1703691;79;21599;-56
2023/08/08 00:36:23;;;;;;;4.12;2.42;;;;;;;18.88;62.67;100111.33;1716010;78;21382;-56
2023/08/08 00:41:58;;;;;;;3.40;2.72;;;;;;;18.78;62.69;100119.89;1700481;80;21866;-56
2023/08/08 00:47:34;;;;;;;5.47;2.30;;;;;;;18.64;62.76;100116.48;1717776;80;21355;-56
2023/08/08 00:53:08;;;;;;;5.28;2.83;;;;;;;18.58;63.04;100131.28;1710380;81;21286;-57
2023/08/08 00:58:43;;;;;;;3.75;2.67;;;;;;;18.49;63.20;100125.73;1716762;79;21849;-56
2023/08/08 01:07:12;;;;;;;2.87;2.58;;;;;;;18.34;63.24;100141.89;1723679;80;21438;-57
2023/08/08 01:10:23;;;;;;;4.12;2.95;;;;;;;18.31;63.38;100139.59;1713522;80;21806;-56
2023/08/08 01:18:28;;;;;;;4.25;2.77;;;;;;;18.20;63.78;100137.59;1716286;80;21570;-56
2023/08/08 01:24:11;;;;;;;6.97;3.00;;;;;;;18.14;63.90;100139.88;1713947;79;21236;-56
2023/08/08 01:27:16;;;;;;;4.05;3.02;;;;;;;18.09;63.92;100139.75;1706563;79;21361;-57
2023/08/08 01:30:21;;;;;;;4.25;2.92;;;;;;;18.07;64.05;100144.66;1720507;79;21272;-56
2023/08/08 01:33:27;;;;;;;7.60;3.35;;;;;;;18.04;64.19;100144.27;1710639;80;21240;-56
2023/08/08 01:36:59;;;;;;;4.30;3.25;;;;;;;18.02;64.38;100151.42;1671652;79;21322;-58
2023/08/08 01:40:07;;;;;;;3.27;2.98;;;;;;;18.00;64.50;100154.95;1725017;79;21386;-57
2023/08/08 01:43:13;;;;;;;7.08;3.85;;;;;;;17.96;64.63;100162.05;1712316;80;21433;-57
2023/08/08 01:46:19;;;;;;;4.33;2.85;;;;;;;17.90;64.55;100165.73;1717392;78;21367;-55
2023/08/08 01:51:53;;;;;;;6.10;3.25;;;;;;;17.73;64.46;100171.00;1667240;81;21878;-56
2023/08/08 01:57:28;;;;;;;5.47;3.25;;;;;;;17.61;64.50;100176.13;1716298;79;21901;-57
2023/08/08 02:03:03;;;;;;;6.47;3.20;;;;;;;17.52;64.75;100180.25;1723320;80;21375;-57
2023/08/08 02:08:39;;;;;;;6.08;3.35;;;;;;;17.45;64.96;100178.06;1713657;80;21404;-57
2023/08/08 02:19:12;;;;;;;4.05;3.17;;;;;;;17.37;65.32;100192.14;1723971;80;21870;-57
2023/08/08 02:22:17;;;;;;;5.72;3.55;;;;;;;17.36;65.38;100191.28;1667465;79;21295;-57
2023/08/08 02:27:52;;;;;;;7.62;4.35;;;;;;;17.31;65.52;100195.81;1706705;80;21224;-54
2023/08/08 02:33:31;;;;;;;9.38;6.75;;;;;;;17.28;65.79;100204.56;1719195;79;22653;-55
2023/08/08 02:36:37;;;;;;;7.30;5.60;;;;;;;17.27;65.87;100196.78;1713946;80;21441;-56
2023/08/08 02:39:45;;;;;;;6.12;5.08;;;;;;;17.26;65.90;100198.39;1723318;80;21239;-56
2023/08/08 02:45:21;;;;;;;6.97;4.47;;;;;;;17.26;66.14;100203.92;1712528;81;21237;-56
2023/08/08 02:50:56;;;;;;;6.87;4.58;;;;;;;17.28;66.36;100212.30;1653479;81;21299;-55
2023/08/08 02:56:32;;;;;;;8.28;4.33;;;;;;;17.34;66.58;100216.11;1717437;78;21425;-57
2023/08/08 03:02:07;;;;;;;7.78;4.60;;;;;;;17.38;66.70;100214.05;1715738;79;21377;-56
2023/08/08 03:10:15;;;;;;;6.95;4.05;;;;;;;17.49;66.99;100227.76;1707496;81;21870;-55
2023/08/08 03:15:51;;;;;;;8.78;3.90;;;;;;;17.54;67.13;100233.44;1716878;80;21204;-57
2023/08/08 03:21:25;;;;;;;5.50;3.90;;;;;;;17.60;67.18;100236.16;1692109;80;21443;-56
2023/08/08 03:24:32;;;;;;;7.28;4.75;;;;;;;17.62;67.15;100234.55;1708736;80;21494;-57
2023/08/08 03:30:06;;;;;;;7.03;4.47;;;;;;;17.68;67.34;100233.65;1696752;79;21192;-58
2023/08/08 03:35:43;;;;;;;7.17;4.58;;;;;;;17.76;67.50;100243.06;1687859;80;21759;-56
2023/08/08 03:41:19;;;;;;;5.97;3.80;;;;;;;17.85;67.61;100246.70;1708592;81;21227;-57
2023/08/08 03:49:24;;;;;;;5.15;4.47;;;;;;;17.99;67.76;100254.38;1722225;79;21418;-57
2023/08/08 03:55:00;;;;;;;6.65;4.58;;;;;;;18.09;67.84;100264.42;1721819;80;21216;-57
2023/08/08 03:58:06;;;;;;;9.13;4.35;;;;;;;18.13;67.85;100260.11;1687809;80;21226;-57
2023/08/08 04:03:42;;;;;;;6.78;4.75;;;;;;;18.25;67.94;100265.20;1655543;80;21400;-57
2023/08/08 04:06:40;;;;;;;8.78;5.50;;;;;;;18.31;67.97;100272.62;1685753;80;21257;-57
2023/08/08 04:09:46;;;;;;;6.95;5.60;;;;;;;18.37;68.02;100278.63;1686483;81;21872;-56
2023/08/08 04:15:21;;;;;;;8.10;6.97;;;;;;;18.55;68.22;100293.91;1688561;80;21300;-57
2023/08/08 04:20:56;;;;;;;8.20;7.30;;;;;;;18.67;68.30;100296.78;1687103;80;21238;-58
2023/08/08 04:26:30;;;;;;;9.05;7.22;;;;;;;18.83;68.37;100306.74;1700015;79;21311;-57
2023/08/08 04:32:05;;;;;;;9.10;6.72;;;;;;;18.98;68.47;100311.34;1698302;80;21919;-58
2023/08/08 04:37:42;;;;;;;7.15;5.17;;;;;;;19.16;68.51;100319.67;1702049;80;21394;-58
2023/08/08 04:43:19;;;;;;;8.50;5.67;;;;;;;19.30;68.53;100328.69;1712330;80;21266;-57
2023/08/08 04:51:22;;;;;;;7.17;5.83;;;;;;;19.50;68.55;100336.23;1706930;82;21265;-59
2023/08/08 04:56:58;;;;;;;7.78;5.00;;;;;;;19.61;68.57;100334.58;1702250;79;21204;-58
2023/08/08 05:00:07;;;;;;;7.05;4.90;;;;;;;19.67;68.59;100335.02;1705860;81;21999;-57
2023/08/08 05:03:12;;;;;;;9.10;5.75;;;;;;;19.76;68.60;100333.59;1677244;80;21617;-57
2023/08/08 05:06:17;;;;;;;7.83;4.97;;;;;;;19.86;68.69;100336.66;1708227;80;21232;-56
2023/08/08 05:09:26;;;;;;;6.22;4.70;;;;;;;19.93;68.68;100338.80;1710443;79;21799;-60
2023/08/08 05:11:54;;;;;;;8.98;4.90;;;;;;;20.00;68.65;100336.75;1727154;79;21734;-58
2023/08/08 05:15:01;;;;;;;7.90;4.67;;;;;;;20.05;68.60;100341.05;1738950;79;21212;-57
2023/08/08 05:18:07;;;;;;;6.78;4.12;;;;;;;20.12;68.56;100351.54;1703168;81;21737;-56
2023/08/08 05:21:14;;;;;;;8.98;4.75;;;;;;;20.18;68.50;100343.13;1695918;80;21314;-58
2023/08/08 05:24:21;;;;;;;6.22;4.03;;;;;;;20.22;68.46;100349.89;1699097;80;22114;-57
2023/08/08 05:29:57;;;;;;;9.28;4.40;;;;;;;20.30;68.40;100353.71;1681060;80;21291;-58
2023/08/08 05:33:01;;;;;;;8.23;4.47;;;;;;;20.36;68.46;100350.53;1707885;80;21235;-56
2023/08/08 05:38:35;;;;;;;5.47;3.52;;;;;;;20.54;68.39;100344.84;1719689;80;21230;-58
2023/08/08 05:41:41;;;;;;;7.60;3.65;;;;;;;20.59;68.32;100353.31;1668482;80;21831;-56
2023/08/08 05:49:43;;;;;;;4.70;3.17;;;;;;;20.74;68.15;100348.95;1637532;82;21225;-57
2023/08/08 05:52:49;;;;;;;5.17;3.42;;;;;;;20.80;68.08;100348.55;1718388;79;21259;-58
2023/08/08 05:58:26;;;;;;;8.33;3.37;;;;;;;20.95;67.98;100362.80;1679885;79;22188;-55
2023/08/08 06:01:32;;;;;;;5.05;3.40;;;;;;;21.00;67.90;100367.66;1709634;79;21812;-54
2023/08/08 06:04:41;;;;;;;6.87;3.75;;;;;;;21.05;67.76;100359.42;1715508;79;21343;-54
2023/08/08 06:10:17;;;;;;;6.50;3.47;;;;;;;21.15;67.59;100372.19;1697280;79;21236;-56
2023/08/08 06:15:53;;;;;;;4.65;2.95;;;;;;;21.23;67.39;100370.42;1708248;80;21919;-55
2023/08/08 06:21:28;;;;;;;4.35;3.15;;;;;;;21.33;67.15;100369.23;1702097;80;21639;-55
2023/08/08 06:27:04;;;;;;;4.58;2.67;;;;;;;21.45;66.87;100379.81;1690590;80;21219;-54
2023/08/08 06:32:39;;;;;;;5.03;3.08;;;;;;;21.53;66.62;100382.21;1666495;82;21527;-56
2023/08/08 06:38:13;;;;;;;6.95;2.87;;;;;;;21.62;66.48;100382.97;1700874;80;21205;-55
2023/08/08 06:41:20;;;;;;;5.12;2.15;;;;;;;21.67;66.38;100378.04;1692094;80;21203;-55
2023/08/08 06:46:54;;;;;;;3.33;1.95;;;;;;;21.82;66.15;100396.47;1644975;81;22161;-60
2023/08/08 06:49:59;;;;;;;3.90;2.33;;;;;;;21.85;65.97;100392.65;1660468;80;21239;-58
2023/08/08 06:53:12;;;;;;;3.37;2.25;;;;;;;21.89;65.86;100396.65;1700899;80;22159;-62
2023/08/08 06:56:18;;;;;;;2.37;1.77;;;;;;;21.94;65.72;100390.32;1670204;81;21240;-59
2023/08/08 06:59:25;;;;;;;2.15;1.75;;;;;;;21.99;65.58;100390.42;1657640;80;21372;-60
2023/08/08 07:02:30;;;;;;;4.35;2.35;;;;;;;22.05;65.50;100393.59;1686259;80;21292;-63
2023/08/08 07:05:35;;;;;;;2.90;2.33;;;;;;;22.12;65.43;100381.72;1668406;80;21592;-60
2023/08/08 07:08:42;;;;;;;3.08;2.10;;;;;;;22.20;65.33;100390.53;1700080;80;21235;-58
2023/08/08 07:14:16;;;;;;;4.87;1.87;;;;;;;22.32;64.98;100393.80;1670817;80;21716;-59
2023/08/08 07:17:21;;;;;;;4.72;2.10;;;;;;;22.37;64.92;100392.51;1661836;81;21323;-58
2023/08/08 07:23:00;;;;;;;3.22;1.50;;;;;;;22.51;64.68;100389.14;1668454;79;21838;-62
2023/08/08 07:28:34;;;;;;;2.15;1.05;;;;;;;22.65;64.25;100384.08;1655233;80;21244;-58
2023/08/08 07:34:10;;;;;;;5.70;1.57;;;;;;;22.73;63.83;100387.30;1666541;80;21234;-59
2023/08/08 07:37:15;;;;;;;1.62;1.50;;;;;;;22.75;63.60;100391.23;1676857;81;21767;-60
2023/08/08 07:42:53;;;;;;;2.35;1.30;;;;;;;22.74;63.20;100380.61;1665653;82;21252;-60
2023/08/08 07:48:29;;;;;;;1.50;1.32;;;;;;;22.86;62.96;100393.08;1675699;81;21300;-63
2023/08/08 07:56:35;;;;;;;3.02;1.60;;;;;;;23.01;62.42;100387.17;1707241;79;21229;-61
2023/08/08 08:02:11;;;;;;;2.72;1.50;;;;;;;23.16;62.19;100389.35;1699403;81;21808;-58
2023/08/08 08:10:18;;;;;;;3.30;1.40;;;;;;;23.24;61.36;100376.34;1703633;79;21519;-65
2023/08/08 08:13:24;;;;;;;6.58;1.50;;;;;;;23.29;61.24;100380.06;1701690;80;22252;-62
2023/08/08 08:18:59;;;;;;;3.83;1.50;;;;;;;23.41;60.88;100378.55;1704121;82;21579;-64
2023/08/08 08:24:35;;;;;;;1.72;1.30;;;;;;;23.54;60.54;100380.96;1697900;79;21237;-56
2023/08/08 08:27:42;;;;;;;2.55;1.35;;;;;;;23.60;60.31;100365.94;1703470;80;21228;-59
2023/08/08 08:33:14;;;;;;;2.65;1.50;;;;;;;23.71;59.86;100366.34;1708118;80;21239;-60
2023/08/08 08:36:21;;;;;;;1.85;1.55;;;;;;;23.76;59.68;100361.36;1694444;81;21254;-60
2023/08/08 08:42:04;;;;;;;6.15;1.55;;;;;;;23.84;59.24;100351.11;1689921;80;21214;-58
2023/08/08 08:50:06;;;;;;;1.82;1.42;;;;;;;23.96;58.67;100342.85;1695786;80;21172;-58
2023/08/08 08:53:11;;;;;;;2.80;1.65;;;;;;;24.03;58.49;100345.47;1702528;78;21575;-57
2023/08/08 08:56:16;;;;;;;1.80;1.60;;;;;;;24.10;58.30;100354.52;1664795;81;21240;-58
2023/08/08 09:01:52;;;;;;;4.67;1.60;;;;;;;24.18;57.92;100347.03;1658187;80;21819;-58
2023/08/08 09:05:01;;;;;;;5.60;1.70;;;;;;;24.23;57.72;100338.12;1678429;81;21350;-56
2023/08/08 09:08:09;;;;;;;4.53;1.60;;;;;;;24.30;57.57;100340.16;1657961;81;21243;-56
2023/08/08 09:13:48;;;;;;;4.25;1.65;;;;;;;24.44;57.23;100331.59;1710967;79;21269;-56
2023/08/08 09:19:24;;;;;;;3.95;1.40;;;;;;;24.57;56.74;100329.75;1676063;80;21932;-56
2023/08/08 09:22:29;;;;;;;1.77;1.30;;;;;;;24.60;56.56;100319.41;1692457;81;21643;-56
2023/08/08 09:28:05;;;;;;;2.22;1.42;;;;;;;24.66;56.10;100317.47;1677383;79;21884;-57
2023/08/08 09:33:41;;;;;;;3.08;1.50;;;;;;;24.75;55.83;100323.73;1695031;81;21286;-53
2023/08/08 09:39:17;;;;;;;6.22;2.10;;;;;;;24.75;55.38;100320.93;1713564;79;21450;-54
2023/08/08 09:42:25;;;;;;;3.58;1.50;;;;;;;24.77;55.25;100316.45;1692562;82;21239;-52
2023/08/08 09:48:02;;;;;;;2.22;1.52;;;;;;;24.91;55.05;100315.72;1647881;83;21607;-54
2023/08/08 09:51:10;;;;;;;4.40;1.90;;;;;;;25.03;54.96;100308.51;1648446;83;21263;-53
2023/08/08 09:54:17;;;;;;;15.35;9.15;;;;;;;25.10;54.69;100315.27;1674949;80;21257;-53
2023/08/08 09:56:59;;;;;;;4.85;2.35;;;;;;;25.21;54.52;100312.26;1708099;78;21274;-51
2023/08/08 09:59:37;;;;;;;3.35;1.85;;;;;;;25.33;54.33;100318.46;1619560;83;21263;-55
2023/08/08 10:02:42;;;;;;;2.67;1.72;;;;;;;25.35;54.02;100312.62;1668955;80;21454;-51
2023/08/08 10:05:50;;;;;;;2.45;1.60;;;;;;;25.36;53.91;100314.29;1679632;79;21252;-52
2023/08/08 10:08:56;;;;;;;2.33;1.70;;;;;;;25.43;53.73;100318.55;1686876;80;21236;-52
2023/08/08 10:14:38;;;;;;;2.20;1.37;;;;;;;25.61;53.46;100313.01;1694815;81;21272;-51
2023/08/08 10:17:48;;;;;;;3.60;1.40;;;;;;;25.68;53.38;100317.78;1681394;78;21247;-51
2023/08/08 10:20:58;;;;;;;2.02;1.40;;;;;;;25.78;53.14;100315.83;1702490;79;21227;-53
2023/08/08 10:24:15;;;;;;;1.95;1.32;;;;;;;25.74;52.71;100311.91;1704600;79;21232;-53
2023/08/08 10:29:50;;;;;;;4.33;1.70;;;;;;;25.67;52.29;100305.70;1661109;82;21787;-51
2023/08/08 10:35:29;;;;;;;3.47;1.37;;;;;;;25.97;52.38;100299.34;1687371;79;21243;-53
2023/08/08 10:41:09;;;;;;;2.37;1.40;;;;;;;26.21;51.99;100313.16;1694756;80;21220;-51
2023/08/08 10:44:17;;;;;;;4.37;1.45;;;;;;;26.17;51.72;100303.59;1694994;80;21381;-51
2023/08/08 10:47:27;;;;;;;3.22;1.57;;;;;;;26.12;51.46;100299.37;1660256;77;21256;-50
2023/08/08 10:50:33;;;;;;;6.55;1.60;;;;;;;26.18;51.28;100297.69;1641558;81;21219;-53
2023/08/08 10:56:11;;;;;;;1.70;1.15;;;;;;;26.51;51.25;100303.33;1698451;80;21806;-55
2023/08/08 10:59:22;;;;;;;;;;;;;;;26.66;50.99;100298.25;1655698;82;21742;-49
2023/08/08 11:04:58;;;;;;;2.12;1.70;;;;;;;26.93;50.46;100301.02;1647821;81;21258;-53
2023/08/08 11:13:12;;;;;;;5.72;1.55;;;;;;;27.21;49.80;100287.72;1704578;80;21224;-51
2023/08/08 11:16:17;;;;;;;2.08;1.42;;;;;;;27.22;49.48;100293.63;1660036;81;21267;-52
2023/08/08 11:21:52;;;;;;;1.87;1.22;;;;;;;27.25;49.01;100293.05;1697824;79;21412;-58
2023/08/08 11:25:03;;;;;;;1.98;1.47;;;;;;;27.33;48.91;100291.09;1709939;80;21268;-56
2023/08/08 11:33:08;;;;;;;3.22;1.35;;;;;;;27.66;48.27;100283.32;1685379;80;21790;-55
2023/08/08 11:38:43;;;;;;;3.77;2.40;;;;;;;27.61;47.82;100276.86;1705813;80;22140;-54
2023/08/08 11:41:50;;;;;;;4.80;2.50;;;;;;;27.63;47.62;100285.31;1707895;80;21205;-55
2023/08/08 11:49:59;;;;;;;6.97;2.05;;;;;;;27.73;47.24;100275.38;1706427;80;21734;-56
2023/08/08 11:55:36;;;;;;;2.60;1.30;;;;;;;28.04;46.89;100276.61;1697936;80;21230;-58
2023/08/08 11:58:43;;;;;;;2.35;1.60;;;;;;;28.13;46.61;100277.09;1695213;80;21221;-56
2023/08/08 12:01:49;;;;;;;2.92;1.47;;;;;;;28.21;46.31;100279.88;1691830;80;21216;-57
2023/08/08 12:04:56;;;;;;;4.40;1.67;;;;;;;28.31;46.22;100278.36;1709701;79;21226;-55
2023/08/08 12:08:03;;;;;;;4.83;1.27;;;;;;;28.39;45.86;100284.77;1698375;80;21809;-57
2023/08/08 12:11:09;;;;;;;2.75;1.40;;;;;;;28.35;45.58;100280.30;1680280;81;21281;-55
2023/08/08 12:16:47;;;;;;;2.50;1.82;;;;;;;28.33;45.15;100285.96;1705091;81;21461;-56
2023/08/08 12:19:54;;;;;;;2.75;1.85;;;;;;;28.27;44.91;100286.59;1672171;80;21260;-56
2023/08/08 12:23:00;;;;;;;2.52;1.87;;;;;;;28.13;44.64;100283.32;1639057;81;21612;-57
2023/08/08 12:26:06;;;;;;;3.62;2.10;;;;;;;27.99;44.43;100282.30;1667691;81;21848;-53
2023/08/08 12:31:42;;;;;;;2.77;1.65;;;;;;;27.97;44.25;100280.34;1698598;81;21836;-58
2023/08/08 12:34:52;;;;;;;2.05;1.32;;;;;;;27.98;44.10;100274.97;1698023;79;21243;-56
2023/08/08 12:38:03;;;;;;;3.87;1.60;;;;;;;28.04;43.93;100280.83;1705870;79;21275;-57
2023/08/08 12:41:10;;;;;;;2.25;1.30;;;;;;;28.10;43.89;100280.50;1699090;78;21920;-54
2023/08/08 12:43:40;;;;;;;3.02;1.27;;;;;;;28.08;43.62;100277.72;1706925;80;21247;-57
2023/08/08 12:46:50;;;;;;;1.65;1.12;;;;;;;28.03;43.49;100281.98;1650469;81;21255;-54
2023/08/08 12:49:56;;;;;;;3.10;1.37;;;;;;;27.88;43.21;100282.07;1682779;81;21807;-55
2023/08/08 12:53:04;;;;;;;4.58;1.70;;;;;;;27.77;43.11;100278.46;1683997;81;21304;-57
2023/08/08 12:56:13;;;;;;;3.35;1.15;;;;;;;27.65;42.96;100279.39;1696566;80;21241;-57
2023/08/08 13:01:48;;;;;;;3.47;1.60;;;;;;;27.43;42.80;100272.74;1689572;82;21236;-56
2023/08/08 13:07:25;;;;;;;1.92;1.57;;;;;;;27.53;42.82;100260.59;1697275;78;21236;-57
2023/08/08 13:13:03;;;;;;;4.10;1.30;;;;;;;27.69;42.82;100270.08;1702235;78;21792;-60
2023/08/08 13:16:10;;;;;;;3.17;1.57;;;;;;;27.74;42.73;100261.61;1683362;81;21275;-58
2023/08/08 13:19:21;;;;;;;2.15;1.32;;;;;;;27.74;42.59;100255.13;1690509;80;21615;-58
2023/08/08 13:22:35;;;;;;;1.90;1.42;;;;;;;27.76;42.59;100245.84;1706506;80;21251;-58
2023/08/08 13:28:11;;;;;;;1.95;1.30;;;;;;;27.84;42.44;100255.07;1712993;79;21795;-59
2023/08/08 13:33:47;;;;;;;2.45;1.30;;;;;;;27.86;42.16;100259.81;1715018;80;21232;-58
2023/08/08 13:36:54;;;;;;;3.83;1.32;;;;;;;27.95;42.22;100268.52;1715416;79;21880;-58
2023/08/08 13:40:01;;;;;;;2.00;1.32;;;;;;;28.06;42.13;100269.57;1708866;81;21340;-58
2023/08/08 13:43:08;;;;;;;3.17;1.40;;;;;;;28.13;41.99;100273.47;1715227;79;21287;-57
2023/08/08 13:48:45;;;;;;;2.60;1.32;;;;;;;28.16;41.86;100267.25;1704846;80;21362;-59
2023/08/08 13:54:20;;;;;;;2.52;1.50;;;;;;;28.02;41.62;100262.02;1707125;80;21281;-59
2023/08/08 13:59:57;;;;;;;6.00;1.45;;;;;;;27.95;41.56;100256.71;1703840;80;21261;-59
2023/08/08 14:05:33;;;;;;;2.60;1.50;;;;;;;27.86;41.53;100254.19;1715086;80;21937;-60
2023/08/08 14:08:39;;;;;;;4.87;1.37;;;;;;;27.82;41.38;100266.63;1709015;81;21193;-59
2023/08/08 14:16:42;;;;;;;2.12;1.35;;;;;;;27.73;41.24;100266.12;1703286;79;21246;-60
2023/08/08 14:19:49;;;;;;;2.02;1.40;;;;;;;27.71;41.29;100266.41;1699966;79;21842;-59
2023/08/08 14:22:54;;;;;;;2.85;1.47;;;;;;;27.69;41.34;100264.45;1701534;80;21766;-60
2023/08/08 14:25:59;;;;;;;3.45;1.60;;;;;;;27.64;41.35;100273.47;1655916;83;21211;-58
2023/08/08 14:29:06;;;;;;;4.20;1.60;;;;;;;27.59;41.38;100268.72;1688664;78;21221;-59
2023/08/08 14:34:42;;;;;;;2.75;1.57;;;;;;;27.60;41.46;100271.83;1679173;81;21892;-61
2023/08/08 14:40:18;;;;;;;3.30;1.57;;;;;;;27.55;41.41;100273.81;1687604;81;21373;-60
2023/08/08 14:45:55;;;;;;;5.65;1.82;;;;;;;27.51;41.49;100272.73;1672398;80;21439;-57
2023/08/08 14:51:31;;;;;;;4.00;1.50;;;;;;;27.45;41.55;100271.89;1700360;79;21266;-58
2023/08/08 14:57:08;;;;;;;4.22;1.70;;;;;;;27.47;41.66;100270.20;1719633;79;21879;-58
2023/08/08 15:02:44;;;;;;;4.60;1.98;;;;;;;27.53;41.63;100272.70;1695163;80;21336;-58
2023/08/08 15:08:21;;;;;;;2.47;1.60;;;;;;;27.51;41.66;100273.55;1713838;80;21418;-59
2023/08/08 15:13:58;;;;;;;3.25;2.17;;;;;;;27.43;41.79;100278.36;1681345;78;21363;-60
2023/08/08 15:19:33;;;;;;;3.40;1.60;;;;;;;27.34;41.86;100268.01;1679097;80;21251;-59
2023/08/08 15:25:09;;;;;;;2.70;1.40;;;;;;;27.33;41.99;100275.63;1731657;80;21232;-59
2023/08/08 15:30:46;;;;;;;4.37;1.60;;;;;;;27.32;42.02;100279.55;1700344;79;21342;-59
2023/08/08 15:33:52;;;;;;;1.85;1.50;;;;;;;27.39;42.05;100273.05;1692756;79;21382;-60
2023/08/08 15:39:28;;;;;;;2.60;1.52;;;;;;;27.57;41.71;100272.97;1704748;80;21391;-59
2023/08/08 15:45:05;;;;;;;7.62;3.60;;;;;;;27.53;41.77;100271.29;1694935;80;21288;-60
2023/08/08 15:50:40;;;;;;;6.10;2.52;;;;;;;27.37;41.67;100265.47;1676272;81;21898;-59
2023/08/08 15:53:47;;;;;;;4.75;2.12;;;;;;;27.20;41.67;100271.98;1694154;78;21248;-59
2023/08/08 16:01:52;;;;;;;35.92;18.62;;;;;;;26.64;41.91;100280.28;1693313;80;21255;-59
2023/08/08 16:04:57;;;;;;;59.48;28.75;;;;;;;26.50;41.95;100270.73;1659370;80;21243;-59
2023/08/08 16:10:32;;;;;;;63.20;29.23;;;;;;;26.18;42.14;100279.45;1685667;80;21355;-58
2023/08/08 16:16:07;;;;;;;30.23;17.15;;;;;;;25.92;42.39;100279.69;1665055;80;21345;-58
2023/08/08 16:21:43;;;;;;;75.03;39.15;;;;;;;25.65;42.71;100287.48;1693885;80;21251;-58
2023/08/08 16:27:18;;;;;;;53.02;27.13;;;;;;;25.42;43.01;100287.98;1694564;80;21242;-58
2023/08/08 16:32:53;;;;;;;34.27;17.85;;;;;;;25.19;43.38;100281.40;1684874;82;21224;-58
2023/08/08 16:38:29;;;;;;;57.78;33.28;;;;;;;24.97;43.69;100281.01;1698901;80;21235;-59
2023/08/08 16:44:10;;;;;;;30.80;14.25;;;;;;;24.75;44.02;100291.53;1706855;80;21254;-58
2023/08/08 16:47:16;;;;;;;;;;;;;;;24.67;44.20;100289.23;1695651;80;21297;-58
2023/08/08 16:50:22;;;;;;;12.40;6.97;;;;;;;24.56;44.37;100290.83;1705373;81;20681;-58
2023/08/08 16:53:27;;;;;;;10.23;5.78;;;;;;;24.44;44.56;100286.81;1707336;79;21335;-59
2023/08/08 16:56:32;;;;;;;13.43;8.38;;;;;;;24.33;44.69;100282.25;1699715;82;21275;-58
2023/08/08 16:59:38;;;;;;;12.45;6.03;;;;;;;24.21;44.87;100283.00;1684707;82;21468;-58
2023/08/08 17:02:44;;;;;;;9.08;4.50;;;;;;;24.12;45.08;100278.17;1681292;80;21742;-58
2023/08/08 17:10:48;;;;;;;10.68;5.53;;;;;;;23.86;45.58;100281.25;1701126;80;21386;-57
2023/08/08 17:13:55;;;;;;;7.42;5.25;;;;;;;23.79;45.71;100282.00;1703528;80;21242;-58
2023/08/08 17:19:31;;;;;;;11.33;5.97;;;;;;;23.64;46.07;100289.67;1709133;81;21201;-58
2023/08/08 17:25:06;;;;;;;17.25;7.58;;;;;;;23.50;46.43;100295.94;1705713;81;21212;-58
2023/08/08 17:30:40;;;;;;;15.00;9.38;;;;;;;23.33;46.64;100289.05;1713279;79;21406;-57
2023/08/08 17:36:15;;;;;;;10.98;5.22;;;;;;;23.11;46.89;100283.99;1707712;80;21208;-58
2023/08/08 17:39:21;;;;;;;10.40;4.40;;;;;;;23.03;47.03;100285.84;1709118;79;21227;-58
2023/08/08 17:44:55;;;;;;;5.40;3.35;;;;;;;22.86;47.49;100277.22;1715431;79;21379;-58
2023/08/08 17:50:37;;;;;;;8.93;2.90;;;;;;;22.71;47.85;100277.84;1687219;80;21286;-59
2023/08/08 17:53:55;;;;;;;4.53;2.67;;;;;;;22.64;47.99;100272.16;1692696;80;21622;-58
2023/08/08 17:57:02;;;;;;;5.95;2.62;;;;;;;22.53;48.25;100278.70;1709622;80;21383;-59
2023/08/08 18:00:10;;;;;;;8.18;2.92;;;;;;;22.46;48.49;100286.35;1706568;80;21323;-58
2023/08/08 18:05:47;;;;;;;5.58;2.67;;;;;;;22.33;48.90;100286.70;1719429;80;21241;-58
2023/08/08 18:08:53;;;;;;;6.92;2.75;;;;;;;22.27;49.04;100281.60;1693554;78;21840;-58
2023/08/08 18:14:29;;;;;;;3.42;2.40;;;;;;;22.15;49.42;100278.06;1704196;80;21717;-59
2023/08/08 18:17:36;;;;;;;3.87;2.42;;;;;;;22.11;49.55;100283.30;1677893;81;21271;-58
2023/08/08 18:20:42;;;;;;;8.30;2.67;;;;;;;22.05;49.72;100277.34;1695106;81;21231;-58
2023/08/08 18:23:49;;;;;;;9.78;3.10;;;;;;;22.00;49.88;100287.55;1700581;80;21256;-58
2023/08/08 18:29:25;;;;;;;10.48;4.10;;;;;;;21.86;50.18;100306.55;1703826;79;21780;-57
2023/08/08 18:32:29;;;;;;;7.70;3.37;;;;;;;21.81;50.34;100304.21;1707376;80;21260;-58
2023/08/08 18:38:05;;;;;;;10.68;6.25;;;;;;;21.65;50.64;100304.45;1657803;82;21250;-58
2023/08/08 18:41:11;;;;;;;6.92;4.75;;;;;;;21.61;50.77;100304.63;1651029;80;21307;-58
2023/08/08 18:44:18;;;;;;;13.78;7.03;;;;;;;21.53;50.88;100298.06;1677242;79;21712;-58
2023/08/08 18:49:55;;;;;;;7.00;3.92;;;;;;;21.40;51.17;100303.09;1711764;79;21385;-57
2023/08/08 18:55:30;;;;;;;12.15;6.22;;;;;;;21.26;51.45;100305.88;1712741;80;22543;-57
2023/08/08 19:01:07;;;;;;;15.25;5.40;;;;;;;21.17;51.81;100302.63;1699644;80;21217;-58
2023/08/08 19:09:17;;;;;;;6.67;3.50;;;;;;;21.07;52.22;100299.65;1711825;80;21327;-59
2023/08/08 19:14:50;;;;;;;6.12;3.62;;;;;;;20.97;52.48;100311.94;1703583;80;21899;-58
2023/08/08 19:20:25;;;;;;;7.87;3.20;;;;;;;20.88;52.69;100301.39;1700671;81;21379;-58
2023/08/08 19:26:01;;;;;;;7.65;2.52;;;;;;;20.76;52.90;100305.05;1703125;80;21374;-58
2023/08/08 19:34:08;;;;;;;3.33;2.00;;;;;;;20.62;53.24;100295.80;1712031;80;21911;-58
2023/08/08 19:39:44;;;;;;;4.08;2.10;;;;;;;20.53;53.50;100311.17;1705819;81;21392;-57
2023/08/08 19:47:50;;;;;;;5.17;1.90;;;;;;;20.47;53.80;100296.85;1710903;80;21225;-57
2023/08/08 19:50:57;;;;;;;3.75;2.10;;;;;;;20.44;53.89;100301.48;1706996;82;21248;-59
2023/08/08 19:56:32;;;;;;;5.28;2.10;;;;;;;20.41;54.15;100322.82;1699805;81;21395;-58
2023/08/08 20:02:08;;;;;;;4.25;2.00;;;;;;;20.45;54.42;100319.88;1706424;80;21228;-58
2023/08/08 20:07:45;;;;;;;5.22;2.22;;;;;;;20.48;54.59;100329.13;1689674;81;21705;-58
2023/08/08 20:13:25;;;;;;;2.65;1.82;;;;;;;20.55;54.80;100336.82;1706286;80;21835;-57
2023/08/08 20:21:32;;;;;;;3.17;1.67;;;;;;;20.63;55.04;100328.94;1708840;79;21397;-58
2023/08/08 20:27:07;;;;;;;4.92;1.82;;;;;;;20.71;55.19;100349.98;1695332;81;21268;-58
2023/08/08 20:32:45;;;;;;;3.83;2.35;;;;;;;20.76;55.39;100358.45;1682717;81;21310;-58
2023/08/08 20:38:20;;;;;;;5.37;2.20;;;;;;;20.83;55.51;100355.02;1711229;80;21260;-58
2023/08/08 20:43:55;;;;;;;5.90;2.17;;;;;;;20.86;55.61;100358.70;1699736;80;21256;-57
2023/08/08 20:49:31;;;;;;;3.50;2.12;;;;;;;20.86;55.65;100348.95;1719762;80;21212;-59
2023/08/08 20:55:08;;;;;;;3.55;2.30;;;;;;;20.74;55.63;100341.14;1706694;80;21417;-57
2023/08/08 21:03:15;;;;;;;8.98;2.95;;;;;;;20.66;55.89;100352.09;1657864;81;21303;-57
2023/08/08 21:08:50;;;;;;;6.58;2.60;;;;;;;20.63;56.05;100361.47;1704564;80;21386;-57
2023/08/08 21:14:26;;;;;;;6.30;2.50;;;;;;;20.57;56.22;100394.42;1685613;81;21669;-58
2023/08/08 21:20:02;;;;;;;3.52;2.08;;;;;;;20.41;56.34;100396.52;1706761;80;21366;-58
2023/08/08 21:25:39;;;;;;;6.22;1.90;;;;;;;20.21;56.52;100397.39;1703522;80;21359;-58
2023/08/08 21:31:13;;;;;;;5.92;1.70;;;;;;;20.00;56.77;100404.31;1710353;80;21473;-57
2023/08/08 21:34:20;;;;;;;3.85;1.70;;;;;;;19.92;56.91;100407.41;1702900;79;21228;-60
2023/08/08 21:39:54;;;;;;;3.65;1.70;;;;;;;19.68;57.07;100411.73;1709857;80;21251;-58
2023/08/08 21:45:29;;;;;;;2.62;1.50;;;;;;;19.44;57.32;100408.52;1697113;81;21579;-58
2023/08/08 21:53:34;;;;;;;2.92;1.60;;;;;;;19.11;57.74;100416.65;1678984;80;21244;-59
2023/08/08 21:56:45;;;;;;;3.22;1.70;;;;;;;18.95;57.87;100418.62;1714552;80;21353;-57
2023/08/08 21:59:49;;;;;;;7.37;1.50;;;;;;;18.73;58.03;100412.34;1725762;79;21412;-58
2023/08/08 22:02:59;;;;;;;2.40;1.50;;;;;;;18.52;58.22;100417.75;1717540;80;21259;-58